createdAt,value
2017-08-18T00:00:37.019Z,1004.05
2017-08-18T00:03:01.476Z,1004.07
2017-08-18T00:05:25.920Z,1004.06
2017-08-18T00:07:50.418Z,1004.03
2017-08-18T00:10:15.052Z,1003.99
2017-08-18T00:12:39.548Z,1003.94
2017-08-18T00:15:03.930Z,1003.94
2017-08-18T00:17:14.442Z,1003.94
2017-08-18T00:19:38.925Z,1003.93
2017-08-18T00:22:03.339Z,1003.88
2017-08-18T00:24:27.717Z,1003.92
2017-08-18T00:26:52.223Z,1003.85
2017-08-18T00:29:16.580Z,1003.85
2017-08-18T00:31:40.953Z,1003.85
2017-08-18T00:33:56.846Z,1003.85
2017-08-18T00:36:21.299Z,1003.84
2017-08-18T00:38:45.651Z,1003.79
2017-08-18T00:41:10.035Z,1003.78
2017-08-18T00:43:34.412Z,1003.75
2017-08-18T00:45:58.851Z,1003.72
2017-08-18T00:48:23.198Z,1003.67
2017-08-18T00:50:47.575Z,1003.66
2017-08-18T00:53:12.001Z,1003.57
2017-08-18T00:55:36.346Z,1003.57
2017-08-18T00:58:00.670Z,1003.56
2017-08-18T01:00:25.051Z,1003.6
2017-08-18T01:02:49.339Z,1003.55
2017-08-18T01:05:13.820Z,1003.52
2017-08-18T01:07:38.106Z,1003.51
2017-08-18T01:10:02.609Z,1003.53
2017-08-18T01:12:26.981Z,1003.52
2017-08-18T01:14:51.399Z,1003.53
2017-08-18T01:17:15.747Z,1003.54
2017-08-18T01:19:31.695Z,1003.1
2017-08-18T01:21:56.153Z,1003.49
2017-08-18T01:24:20.515Z,1003.49
2017-08-18T01:26:45.177Z,1003.47
2017-08-18T01:29:00.852Z,1003.26
2017-08-18T01:31:25.198Z,1003.45
2017-08-18T01:33:49.478Z,1003.46
2017-08-18T01:36:13.688Z,1003.47
2017-08-18T01:38:38.035Z,1003.51
2017-08-18T01:41:02.445Z,1003.45
2017-08-18T01:43:26.828Z,1003.43
2017-08-18T01:45:51.111Z,1003.46
2017-08-18T01:48:15.412Z,1003.5
2017-08-18T01:50:39.796Z,1003.48
2017-08-18T01:53:04.208Z,1003.45
2017-08-18T01:55:28.472Z,1003.45
2017-08-18T01:57:52.784Z,1003.5
2017-08-18T01:59:54.230Z,1003.49
2017-08-18T02:02:18.794Z,1003.56
2017-08-18T02:04:43.008Z,1003.57
2017-08-18T02:07:07.268Z,1003.58
2017-08-18T02:09:31.559Z,1003.58
2017-08-18T02:11:55.868Z,1003.55
2017-08-18T02:14:20.132Z,1003.52
2017-08-18T02:16:44.425Z,1003.52
2017-08-18T02:19:00.310Z,1003.47
2017-08-18T02:21:24.595Z,1003.45
2017-08-18T02:23:48.880Z,1003.44
2017-08-18T02:26:13.153Z,1003.49
2017-08-18T02:28:37.437Z,1003.47
2017-08-18T02:31:01.744Z,1003.46
2017-08-18T02:33:26.053Z,1003.39
2017-08-18T02:35:50.473Z,1003.31
2017-08-18T02:38:14.869Z,1003.28
2017-08-18T02:40:39.705Z,1003.3
2017-08-18T02:43:03.673Z,1003.25
2017-08-18T02:45:28.008Z,1003.21
2017-08-18T02:47:52.492Z,1003.18
2017-08-18T02:50:17.679Z,1003.23
2017-08-18T02:52:42.223Z,1003.27
2017-08-18T02:55:06.571Z,1003.27
2017-08-18T02:57:31.321Z,1003.29
2017-08-18T02:59:55.572Z,1003.24
2017-08-18T03:02:19.546Z,1003.22
2017-08-18T03:04:43.687Z,1003.21
2017-08-18T03:07:08.036Z,1003.19
2017-08-18T03:09:32.205Z,1003.2
2017-08-18T03:11:56.640Z,1003.18
2017-08-18T03:14:21.210Z,1003.24
2017-08-18T03:16:45.828Z,1003.27
2017-08-18T03:19:11.333Z,1003.29
2017-08-18T03:21:35.976Z,1003.26
2017-08-18T03:24:00.510Z,1003.28
2017-08-18T03:26:24.982Z,1003.3
2017-08-18T03:28:49.512Z,1003.3
2017-08-18T03:31:14.231Z,1003.27
2017-08-18T03:33:38.594Z,1003.27
2017-08-18T03:36:03.044Z,1003.24
2017-08-18T03:38:27.626Z,1003.2
2017-08-18T03:40:43.396Z,1003.21
2017-08-18T03:43:07.669Z,1003.22
2017-08-18T03:45:23.513Z,1002.9
2017-08-18T03:47:48.289Z,1003.2
2017-08-18T03:50:14.198Z,1003.19
2017-08-18T03:52:38.499Z,1003.2
2017-08-18T03:55:02.809Z,1003.26
2017-08-18T03:57:27.385Z,1003.26
2017-08-18T03:59:52.061Z,1003.29
2017-08-18T04:02:16.413Z,1003.23
2017-08-18T04:04:40.738Z,1003.21
2017-08-18T04:07:05.030Z,1003.17
2017-08-18T04:09:29.500Z,1003.15
2017-08-18T04:11:53.975Z,1003.09
2017-08-18T04:14:18.371Z,1003.02
2017-08-18T04:16:42.453Z,1002.96
2017-08-18T04:19:07.024Z,1002.92
2017-08-18T04:21:31.332Z,1002.95
2017-08-18T04:23:56.653Z,1002.99
2017-08-18T04:26:20.831Z,1003.07
2017-08-18T04:28:45.107Z,1003.08
2017-08-18T04:31:09.574Z,1002.99
2017-08-18T04:33:33.751Z,1002.95
2017-08-18T04:35:58.043Z,1002.96
2017-08-18T04:38:22.339Z,1003.05
2017-08-18T04:40:46.784Z,1003.02
2017-08-18T04:43:11.136Z,1003
2017-08-18T04:45:35.246Z,1003.01
2017-08-18T04:47:59.509Z,1002.98
2017-08-18T04:50:23.860Z,1002.9
2017-08-18T04:52:48.392Z,1002.9
2017-08-18T04:55:14.155Z,1002.94
2017-08-18T04:57:38.837Z,1002.93
2017-08-18T05:00:03.386Z,1002.96
2017-08-18T05:02:27.760Z,1002.97
2017-08-18T05:04:52.131Z,1003.04
2017-08-18T05:07:16.520Z,1003.1
2017-08-18T05:09:41.966Z,1003.09
2017-08-18T05:12:06.323Z,1003.07
2017-08-18T05:14:30.951Z,1003.08
2017-08-18T05:16:55.305Z,1003.07
2017-08-18T05:19:19.922Z,1003.05
2017-08-18T05:21:44.400Z,1002.94
2017-08-18T05:24:08.727Z,1002.91
2017-08-18T05:26:33.191Z,1002.88
2017-08-18T05:28:57.544Z,1002.84
2017-08-18T05:31:21.949Z,1002.86
2017-08-18T05:33:46.306Z,1002.98
2017-08-18T05:36:10.722Z,1003.06
2017-08-18T05:38:35.125Z,1003.15
2017-08-18T05:40:59.456Z,1003.3
2017-08-18T05:43:23.791Z,1003.36
2017-08-18T05:45:48.169Z,1003.36
2017-08-18T05:51:25.138Z,1003.32
2017-08-18T05:53:36.316Z,1003.3
2017-08-18T05:56:00.777Z,1003.29
2017-08-18T05:58:25.658Z,1003.3
2017-08-18T06:00:41.544Z,1003.28
2017-08-18T06:03:05.945Z,1003.25
2017-08-18T06:05:30.319Z,1003.29
2017-08-18T06:07:46.319Z,1003.28
2017-08-18T06:10:10.715Z,1003.21
2017-08-18T06:12:35.110Z,1003.23
2017-08-18T06:14:59.601Z,1003.22
2017-08-18T06:17:24.093Z,1003.2
2017-08-18T06:19:49.437Z,1003.18
2017-08-18T06:22:15.180Z,1003.18
2017-08-18T06:24:39.639Z,1003.12
2017-08-18T06:27:04.116Z,1003.16
2017-08-18T06:29:28.539Z,1003.21
2017-08-18T06:31:52.980Z,1003.19
2017-08-18T06:34:17.404Z,1003.07
2017-08-18T06:36:41.840Z,1002.92
2017-08-18T06:39:06.345Z,1002.82
2017-08-18T06:41:30.735Z,1002.75
2017-08-18T06:45:53.652Z,1002.64
2017-08-18T06:49:45.421Z,1002.64
2017-08-18T06:52:09.778Z,1002.6
2017-08-18T06:54:34.123Z,1002.67
2017-08-18T06:56:58.500Z,1002.66
2017-08-18T06:59:22.895Z,1002.6
2017-08-18T07:01:47.273Z,1002.68
2017-08-18T07:04:11.666Z,1002.73
2017-08-18T07:06:36.052Z,1002.87
2017-08-18T07:09:00.437Z,1002.8
2017-08-18T07:11:24.776Z,1002.82
2017-08-18T07:13:49.202Z,1002.91
2017-08-18T07:16:14.613Z,1002.99
2017-08-18T07:18:38.981Z,1002.96
2017-08-18T07:21:03.456Z,1003.02
2017-08-18T07:23:27.855Z,1003
2017-08-18T07:26:06.142Z,1002.98
2017-08-18T07:28:30.982Z,1002.96
2017-08-18T07:30:55.708Z,1002.87
2017-08-18T07:33:21.297Z,1002.84
2017-08-18T07:35:46.268Z,1002.78
2017-08-18T07:38:12.022Z,1002.88
2017-08-18T07:40:38.847Z,1002.96
2017-08-18T07:43:08.040Z,1002.99
2017-08-18T07:49:25.208Z,1003.02
2017-08-18T07:51:57.072Z,1003.07
2017-08-18T07:54:14.356Z,1003
2017-08-18T07:56:30.916Z,1002.95
2017-08-18T08:00:53.749Z,1003.11
2017-08-18T08:03:18.960Z,1003.16
2017-08-18T08:05:44.072Z,1003.07
2017-08-18T08:08:09.118Z,1003
2017-08-18T08:10:34.175Z,1003.19
2017-08-18T08:12:59.267Z,1003.14
2017-08-18T08:15:24.278Z,1002.96
2017-08-18T08:17:27.033Z,1002.82
2017-08-18T08:19:44.047Z,1002.94
2017-08-18T08:22:03.666Z,1003.04
2017-08-18T08:24:22.778Z,1003.01
2017-08-18T08:26:47.901Z,1002.9
2017-08-18T08:29:19.777Z,1002.89
2017-08-18T08:31:44.710Z,1002.91
2017-08-18T08:34:01.215Z,1002.87
2017-08-18T08:36:26.184Z,1002.71
2017-08-18T08:38:51.233Z,1002.67
2017-08-18T08:41:16.203Z,1002.79
2017-08-18T08:43:41.363Z,1003.1
2017-08-18T08:46:06.567Z,1003.12
2017-08-18T08:48:31.937Z,1003.11
2017-08-18T08:50:57.309Z,1003.05
2017-08-18T08:53:22.762Z,1003.06
2017-08-18T08:55:48.305Z,1003.04
2017-08-18T08:58:14.011Z,1003.03
2017-08-18T09:00:39.762Z,1002.89
2017-08-18T09:03:05.388Z,1003.01
2017-08-18T09:05:31.075Z,1002.91
2017-08-18T09:07:56.918Z,1002.89
2017-08-18T09:10:22.696Z,1002.94
2017-08-18T09:12:48.366Z,1002.92
2017-08-18T09:15:14.077Z,1002.81
2017-08-18T09:17:39.774Z,1002.85
2017-08-18T09:20:05.504Z,1002.76
2017-08-18T09:22:22.698Z,1002.41
2017-08-18T09:24:48.451Z,1002.67
2017-08-18T09:27:14.167Z,1002.7
2017-08-18T09:29:39.913Z,1002.69
2017-08-18T09:32:05.630Z,1002.68
2017-08-18T09:34:31.329Z,1002.63
2017-08-18T09:36:57.212Z,1002.63
2017-08-18T09:39:00.342Z,1002.58
2017-08-18T09:41:26.068Z,1002.47
2017-08-18T09:43:51.771Z,1002.45
2017-08-18T09:46:02.671Z,1002.38
2017-08-18T09:48:28.371Z,1002.4
2017-08-18T09:50:54.002Z,1002.33
2017-08-18T09:53:19.591Z,1002.24
2017-08-18T09:55:45.205Z,1002.25
2017-08-18T09:58:10.899Z,1002.13
2017-08-18T10:00:36.522Z,1002.05
2017-08-18T10:03:02.221Z,1002.06
2017-08-18T10:05:27.774Z,1001.93
2017-08-18T10:07:53.453Z,1001.95
2017-08-18T10:10:19.012Z,1001.81
2017-08-18T10:12:44.588Z,1001.85
2017-08-18T10:15:10.221Z,1001.86
2017-08-18T10:19:12.219Z,1001.82
2017-08-18T10:23:33.144Z,1001.69
2017-08-18T10:25:50.143Z,1001.74
2017-08-18T10:28:22.748Z,1001.71
2017-08-18T10:30:48.159Z,1001.7
2017-08-18T10:33:13.674Z,1001.63
2017-08-18T10:35:39.237Z,1001.52
2017-08-18T10:37:56.137Z,1001.48
2017-08-18T10:40:21.505Z,1001.46
2017-08-18T10:42:46.838Z,1001.46
2017-08-18T10:45:03.778Z,1001.15
2017-08-18T10:47:29.086Z,1001.42
2017-08-18T10:49:54.485Z,1001.46
2017-08-18T10:52:20.042Z,1001.35
2017-08-18T10:54:45.349Z,1001.29
2017-08-18T10:57:10.766Z,1001.28
2017-08-18T10:59:36.090Z,1001.34
2017-08-18T11:02:01.480Z,1001.3
2017-08-18T11:04:27.083Z,1001.22
2017-08-18T11:06:52.612Z,1001.18
2017-08-18T11:09:17.875Z,1001.08
2017-08-18T11:11:43.099Z,1001.06
2017-08-18T11:14:08.557Z,1000.99
2017-08-18T11:16:19.853Z,1000.89
2017-08-18T11:18:46.893Z,1000.84
2017-08-18T11:21:13.232Z,1000.81
2017-08-18T11:23:40.590Z,1000.74
2017-08-18T11:26:08.034Z,1000.75
2017-08-18T11:28:13.502Z,1000.77
2017-08-18T11:30:39.907Z,1000.74
2017-08-18T11:33:08.196Z,1000.69
2017-08-18T11:35:33.745Z,1000.6
2017-08-18T11:37:59.791Z,1000.59
2017-08-18T11:40:24.512Z,1000.45
2017-08-18T11:42:56.089Z,1000.47
2017-08-18T11:45:22.530Z,1000.48
2017-08-18T11:47:49.167Z,1000.49
2017-08-18T11:50:14.686Z,1000.5
2017-08-18T11:52:40.001Z,1000.42
2017-08-18T11:55:06.754Z,1000.39
2017-08-18T11:57:32.233Z,1000.33
2017-08-18T11:59:57.733Z,1000.32
2017-08-18T12:02:23.021Z,1000.27
2017-08-18T12:04:25.324Z,1000.28
2017-08-18T12:06:35.960Z,1000.26
2017-08-18T12:09:02.091Z,1000.33
2017-08-18T12:11:27.326Z,1000.27
2017-08-18T12:13:53.545Z,1000.2
2017-08-18T12:16:19.612Z,1000.19
2017-08-18T12:18:45.142Z,1000.2
2017-08-18T12:21:10.932Z,1000.16
2017-08-18T12:23:36.457Z,1000.12
2017-08-18T12:26:01.837Z,1000.11
2017-08-18T12:28:27.091Z,999.99
2017-08-18T12:30:52.327Z,999.97
2017-08-18T12:33:18.029Z,999.93
2017-08-18T12:35:43.467Z,999.9
2017-08-18T12:38:10.088Z,999.97
2017-08-18T12:40:36.102Z,999.98
2017-08-18T12:43:02.576Z,999.91
2017-08-18T12:45:29.747Z,999.92
2017-08-18T12:47:56.019Z,999.87
2017-08-18T12:50:22.004Z,999.84
2017-08-18T12:52:47.585Z,999.82
2017-08-18T12:55:20.253Z,999.71
2017-08-18T12:57:48.715Z,999.63
2017-08-18T13:00:13.948Z,999.59
2017-08-18T13:02:39.772Z,999.53
2017-08-18T13:05:07.748Z,999.49
2017-08-18T13:07:40.087Z,999.46
2017-08-18T13:10:10.162Z,999.5
2017-08-18T13:12:35.662Z,999.49
2017-08-18T13:15:02.738Z,999.49
2017-08-18T13:17:28.338Z,999.44
2017-08-18T13:19:54.107Z,999.43
2017-08-18T13:22:19.394Z,999.3
2017-08-18T13:24:44.828Z,999.25
2017-08-18T13:27:10.386Z,999.27
2017-08-18T13:29:35.614Z,999.23
2017-08-18T13:32:02.141Z,999.28
2017-08-18T13:34:29.643Z,999.37
2017-08-18T13:36:55.030Z,999.24
2017-08-18T13:39:20.523Z,999.25
2017-08-18T13:41:45.674Z,999.3
2017-08-18T13:44:10.884Z,999.62
2017-08-18T13:46:27.471Z,999.58
2017-08-18T13:48:52.582Z,999.82
2017-08-18T13:51:17.588Z,999.81
2017-08-18T13:53:34.259Z,999.68
2017-08-18T13:55:59.254Z,1000.06
2017-08-18T13:58:24.393Z,999.9
2017-08-18T14:00:49.299Z,999.9
2017-08-18T14:03:14.351Z,1000.05
2017-08-18T14:05:40.129Z,1000.09
2017-08-18T14:08:04.935Z,1000.02
2017-08-18T14:10:36.603Z,1000.01
2017-08-18T14:13:01.576Z,999.86
2017-08-18T14:15:26.377Z,999.85
2017-08-18T14:17:51.117Z,999.82
2017-08-18T14:20:16.003Z,999.75
2017-08-18T14:22:40.879Z,999.73
2017-08-18T14:25:05.834Z,999.7
2017-08-18T14:27:07.480Z,999.57
2017-08-18T14:29:32.407Z,999.55
2017-08-18T14:31:34.796Z,999.47
2017-08-18T14:33:36.944Z,999.42
2017-08-18T14:36:02.040Z,999.39
2017-08-18T14:38:26.995Z,999.41
2017-08-18T14:43:13.198Z,999.42
2017-08-18T14:45:38.167Z,999.46
2017-08-18T14:48:03.201Z,999.5
2017-08-18T14:52:04.595Z,999.58
2017-08-18T14:54:21.078Z,999.58
2017-08-18T14:56:46.061Z,999.55
2017-08-18T14:59:11.053Z,999.66
2017-08-18T15:01:35.953Z,999.82
2017-08-18T15:06:29.319Z,1000.12
2017-08-18T15:09:05.231Z,1000.21
2017-08-18T15:11:42.483Z,1000.42
2017-08-18T15:14:07.307Z,1000.41
2017-08-18T15:16:32.103Z,1000.41
2017-08-18T15:18:56.924Z,1000.43
2017-08-18T15:21:21.461Z,1000.5
2017-08-18T15:23:46.081Z,1000.62
2017-08-18T15:26:11.071Z,1000.5
2017-08-18T15:28:37.296Z,1000.53
2017-08-18T15:31:01.948Z,1000.7
2017-08-18T15:38:14.445Z,1000.43
2017-08-18T15:40:39.165Z,1000.44
2017-08-18T15:45:08.175Z,1000.57
2017-08-18T15:47:19.230Z,1000.76
2017-08-18T15:49:46.133Z,1001.01
2017-08-18T15:52:10.835Z,1001.1
2017-08-18T15:54:35.370Z,1001.14
2017-08-18T15:57:25.372Z,1001.32
2017-08-18T15:59:50.396Z,1001.55
2017-08-18T16:02:16.617Z,1001.63
2017-08-18T16:04:42.734Z,1001.92
2017-08-18T16:07:08.846Z,1001.84
2017-08-18T16:09:34.993Z,1001.86
2017-08-18T16:12:00.295Z,1001.95
2017-08-18T16:16:56.823Z,1002.05
2017-08-18T16:19:21.692Z,1002.16
2017-08-18T16:21:46.297Z,1002.12
2017-08-18T16:23:47.777Z,1002.27
2017-08-18T16:26:12.321Z,1002.2
2017-08-18T16:28:36.829Z,1002.38
2017-08-18T16:31:01.293Z,1002.44
2017-08-18T16:33:26.331Z,1002.52
2017-08-18T16:35:50.787Z,1002.66
2017-08-18T16:38:06.703Z,1002.73
2017-08-18T16:40:22.718Z,1002.75
2017-08-18T16:42:47.152Z,1002.73
2017-08-18T16:44:57.202Z,1002.63
2017-08-18T16:46:59.933Z,1002.55
2017-08-18T16:49:15.867Z,1002.88
2017-08-18T16:51:40.257Z,1002.98
2017-08-18T16:53:50.787Z,1002.83
2017-08-18T16:56:15.196Z,1002.62
2017-08-18T16:58:39.516Z,1002.59
2017-08-18T17:02:41.014Z,1002.56
2017-08-18T17:05:05.474Z,1002.58
2017-08-18T17:07:29.863Z,1002.59
2017-08-18T17:09:54.355Z,1002.63
2017-08-18T17:12:18.770Z,1002.49
2017-08-18T17:14:43.124Z,1002.15
2017-08-18T17:18:43.389Z,1002.27
2017-08-18T17:21:07.772Z,1002.31
2017-08-18T17:23:32.039Z,1002.15
2017-08-18T17:25:56.368Z,1001.69
2017-08-18T17:28:20.667Z,1001.4
2017-08-18T17:30:44.933Z,1001.44
2017-08-18T17:33:09.251Z,1001.78
2017-08-18T17:35:33.474Z,1001.7
2017-08-18T17:37:57.766Z,1001.93
2017-08-18T17:40:22.074Z,1001.9
2017-08-18T17:42:46.306Z,1001.81
2017-08-18T17:45:10.585Z,1001.93
2017-08-18T17:47:34.915Z,1002.02
2017-08-18T17:49:59.702Z,1001.92
2017-08-18T17:52:23.986Z,1001.69
2017-08-18T17:54:48.274Z,1001.68
2017-08-18T17:57:12.545Z,1001.78
2017-08-18T17:59:36.724Z,1001.86
2017-08-18T18:02:00.948Z,1001.89
2017-08-18T18:04:25.219Z,1001.92
2017-08-18T18:06:49.488Z,1002
2017-08-18T18:09:13.766Z,1001.98
2017-08-18T18:11:29.632Z,1002
2017-08-18T18:13:53.834Z,1001.99
2017-08-18T18:17:41.858Z,1002.14
2017-08-18T18:20:06.364Z,1002.3
2017-08-18T18:22:31.298Z,1002.44
2017-08-18T18:24:55.600Z,1002.59
2017-08-18T18:27:19.798Z,1002.56
2017-08-18T18:29:30.848Z,1002.5
2017-08-18T18:31:54.494Z,1002.52
2017-08-18T18:34:18.693Z,1002.65
2017-08-18T18:36:42.917Z,1002.71
2017-08-18T18:39:07.157Z,1002.75
2017-08-18T18:41:23.038Z,1002.88
2017-08-18T18:43:47.357Z,1002.98
2017-08-18T18:46:11.576Z,1003.01
2017-08-18T18:48:35.964Z,1002.92
2017-08-18T18:51:00.675Z,1003.02
2017-08-18T18:53:25.186Z,1003.04
2017-08-18T18:55:49.512Z,1003.1
2017-08-18T18:58:13.766Z,1003.18
2017-08-18T19:00:38.200Z,1003.2
2017-08-18T19:03:02.286Z,1003.3
2017-08-18T19:05:26.444Z,1003.32
2017-08-18T19:07:50.768Z,1003.3
2017-08-18T19:10:14.929Z,1003.4
2017-08-18T19:12:39.140Z,1003.51
2017-08-18T19:15:03.297Z,1003.49
2017-08-18T19:17:19.098Z,1003.49
2017-08-18T19:19:43.290Z,1003.49
2017-08-18T19:22:07.612Z,1003.54
2017-08-18T19:24:31.820Z,1003.53
2017-08-18T19:26:56.061Z,1003.57
2017-08-18T19:29:20.580Z,1003.55
2017-08-18T19:31:44.777Z,1003.43
2017-08-18T19:34:08.991Z,1003.47
2017-08-18T19:36:33.331Z,1003.45
2017-08-18T19:38:57.541Z,1003.48
2017-08-18T19:41:21.738Z,1003.46
2017-08-18T19:45:22.259Z,1003.43
2017-08-18T19:47:46.440Z,1003.4
2017-08-18T19:50:02.125Z,1003.36
2017-08-18T19:52:17.835Z,1003.17
2017-08-18T19:54:41.902Z,1003.43
2017-08-18T19:57:05.989Z,1003.44
2017-08-18T19:59:30.117Z,1003.43
2017-08-18T20:01:54.196Z,1003.49
2017-08-18T20:04:18.354Z,1003.58
2017-08-18T20:06:42.392Z,1003.62
2017-08-18T20:09:06.614Z,1003.65
2017-08-18T20:11:30.710Z,1003.63
2017-08-18T20:13:54.869Z,1003.58
2017-08-18T20:16:18.973Z,1003.66
2017-08-18T20:18:44.175Z,1003.69
2017-08-18T20:21:09.312Z,1003.71
2017-08-18T20:23:33.479Z,1003.72
2017-08-18T20:25:57.652Z,1003.7
2017-08-18T20:28:21.840Z,1003.74
2017-08-18T20:30:45.933Z,1003.79
2017-08-18T20:33:09.987Z,1003.88
2017-08-18T20:35:34.103Z,1003.8
2017-08-18T20:37:58.174Z,1003.87
2017-08-18T20:40:13.851Z,1003.88
2017-08-18T20:42:37.930Z,1003.88
2017-08-18T20:45:02.068Z,1003.91
2017-08-18T20:47:26.135Z,1003.96
2017-08-18T20:49:50.203Z,1003.96
2017-08-18T20:52:14.324Z,1004.02
2017-08-18T20:54:38.383Z,1004.05
2017-08-18T20:57:02.563Z,1004.06
2017-08-18T20:59:26.625Z,1004.03
2017-08-18T21:01:50.820Z,1003.96
2017-08-18T21:05:42.830Z,1004.04
2017-08-18T21:08:06.977Z,1004.07
2017-08-18T21:10:31.097Z,1004.06
2017-08-18T21:12:56.153Z,1004.05
2017-08-18T21:14:58.058Z,1004.05
2017-08-18T21:17:22.180Z,1004.03
2017-08-18T21:19:46.293Z,1004.05
2017-08-18T21:22:10.396Z,1004.03
2017-08-18T21:24:34.508Z,1004.13
2017-08-18T21:26:41.692Z,1004.12
2017-08-18T21:29:05.798Z,1004.1
2017-08-18T21:31:13.010Z,1004.08
2017-08-18T21:33:37.103Z,1004.04
2017-08-18T21:35:47.566Z,1004.04
2017-08-18T21:38:03.248Z,1003.96
2017-08-18T21:40:27.353Z,1004.14
2017-08-18T21:42:51.444Z,1004.2
2017-08-18T21:45:15.512Z,1004.2
2017-08-18T21:47:31.171Z,1004.2
2017-08-18T21:51:31.099Z,1004.1
2017-08-18T21:53:55.192Z,1004.16
2017-08-18T21:56:19.345Z,1004.21
2017-08-18T21:58:43.455Z,1004.19
2017-08-18T22:01:07.539Z,1004.21
2017-08-18T22:03:31.660Z,1004.18
2017-08-18T22:05:42.118Z,1004.18
2017-08-18T22:08:06.238Z,1004.17
2017-08-18T22:10:30.358Z,1004.21
2017-08-18T22:12:54.503Z,1004.36
2017-08-18T22:15:18.638Z,1004.4
2017-08-18T22:17:42.715Z,1004.5
2017-08-18T22:20:06.837Z,1004.48
2017-08-18T22:22:30.901Z,1004.44
2017-08-18T22:24:54.990Z,1004.36
2017-08-18T22:27:19.104Z,1004.43
2017-08-18T22:29:43.256Z,1004.46
2017-08-18T22:32:07.523Z,1004.5
2017-08-18T22:34:31.612Z,1004.53
2017-08-18T22:36:55.732Z,1004.56
2017-08-18T22:39:19.766Z,1004.56
2017-08-18T22:43:06.023Z,1004.64
2017-08-18T22:45:30.143Z,1004.67
2017-08-18T22:47:31.560Z,1004.74
2017-08-18T22:49:55.694Z,1004.75
2017-08-18T22:52:19.887Z,1004.77
2017-08-18T22:54:22.091Z,1004.77
2017-08-18T22:56:46.216Z,1004.79
2017-08-18T22:59:01.852Z,1004.79
2017-08-18T23:01:25.945Z,1004.77
2017-08-18T23:03:50.047Z,1004.81
2017-08-18T23:07:50.368Z,1004.76
2017-08-18T23:10:14.464Z,1004.73
2017-08-18T23:12:38.544Z,1004.69
2017-08-18T23:16:38.312Z,1004.68
2017-08-18T23:19:02.427Z,1004.65
2017-08-18T23:21:26.468Z,1004.64
2017-08-18T23:23:50.451Z,1004.68
2017-08-18T23:27:50.738Z,1004.67
2017-08-18T23:30:14.846Z,1004.68
2017-08-18T23:32:39.119Z,1004.68
2017-08-18T23:36:39.678Z,1004.68
2017-08-18T23:38:41.546Z,1004.67
2017-08-18T23:41:06.300Z,1004.62
2017-08-18T23:43:36.979Z,1004.67
2017-08-18T23:46:00.961Z,1004.68
2017-08-18T23:50:01.183Z,1004.65
2017-08-18T23:52:25.287Z,1004.69
2017-08-18T23:54:49.297Z,1004.67
2017-08-18T23:57:13.411Z,1004.67
2017-08-18T23:59:51.979Z,1004.64
